Time;durP1;ratioP1;P1;durP2;ratioP2;P2;SDS_P1;SDS_P2;PMS_P1;PMS_P2;Temp;Humidity;BMP_temperature;BMP_pressure;BME280_temperature;BME280_humidity;BME280_pressure;Samples;Min_cycle;Max_cycle;Signal;HPM_P1;HPM_P2
2022/08/11 00:01:12;;;;;;;0.00;0.00;;;19.00;99.90;;;;;;5066700;28;20218;-73
2022/08/11 00:03:47;;;;;;;0.00;0.00;;;18.90;99.90;;;;;;5066488;28;20322;-73
2022/08/11 00:06:22;;;;;;;0.00;0.00;;;18.90;99.90;;;;;;5068512;28;20194;-72
2022/08/11 00:08:50;;;;;;;0.00;0.00;;;18.80;99.90;;;;;;5083546;28;20198;-72
2022/08/11 00:11:19;;;;;;;0.00;0.00;;;18.80;99.90;;;;;;5064414;28;20219;-73
2022/08/11 00:13:50;;;;;;;0.00;0.00;;;18.80;99.90;;;;;;5067338;28;20227;-73
2022/08/11 00:16:24;;;;;;;0.00;0.00;;;18.80;99.90;;;;;;5069337;28;20391;-73
2022/08/11 00:18:53;;;;;;;0.00;0.00;;;18.70;99.90;;;;;;5067379;28;20233;-73
2022/08/11 00:21:22;;;;;;;0.00;0.00;;;18.70;99.90;;;;;;5068274;28;20263;-73
2022/08/11 00:23:55;;;;;;;0.00;0.00;;;18.70;99.90;;;;;;5058853;28;20626;-72
2022/08/11 00:26:24;;;;;;;0.00;0.00;;;18.70;99.90;;;;;;5066999;28;20206;-73
2022/08/11 00:28:51;;;;;;;0.00;0.00;;;18.60;99.90;;;;;;5064265;28;20294;-74
2022/08/11 00:31:24;;;;;;;0.00;0.00;;;18.60;99.90;;;;;;5061089;28;20222;-73
2022/08/11 00:33:52;;;;;;;0.00;0.00;;;18.60;99.90;;;;;;5066795;28;20218;-73
2022/08/11 00:36:23;;;;;;;0.00;0.00;;;18.50;99.90;;;;;;5067699;28;20202;-73
2022/08/11 00:38:52;;;;;;;0.00;0.00;;;18.50;99.90;;;;;;5066509;28;20194;-73
2022/08/11 00:41:32;;;;;;;0.00;0.00;;;18.50;99.90;;;;;;5067066;28;20195;-73
2022/08/11 00:44:30;;;;;;;0.00;0.00;;;18.50;99.90;;;;;;5074825;28;20218;-73
2022/08/11 00:47:14;;;;;;;0.00;0.00;;;18.40;99.90;;;;;;5053847;28;20194;-73
2022/08/11 00:49:54;;;;;;;0.00;0.00;;;18.40;99.90;;;;;;5064764;28;20226;-73
2022/08/11 00:52:39;;;;;;;0.00;0.00;;;18.40;99.90;;;;;;5063149;28;20198;-73
2022/08/11 00:55:41;;;;;;;0.00;0.00;;;18.40;99.90;;;;;;5066752;28;20218;-73
2022/08/11 00:58:46;;;;;;;0.00;0.00;;;18.30;99.90;;;;;;5063450;28;20281;-72
2022/08/11 01:01:24;;;;;;;0.00;0.00;;;18.30;99.90;;;;;;5065432;28;20191;-72
2022/08/11 01:04:26;;;;;;;0.00;0.00;;;18.30;99.90;;;;;;5061365;28;20291;-72
2022/08/11 01:07:30;;;;;;;0.00;0.00;;;18.20;99.90;;;;;;5050377;28;20199;-72
2022/08/11 01:10:23;;;;;;;0.00;0.00;;;18.20;99.90;;;;;;5065705;28;20211;-72
2022/08/11 01:13:04;;;;;;;0.00;0.00;;;18.00;99.90;;;;;;5066030;28;20210;-72
2022/08/11 01:16:08;;;;;;;0.00;0.00;;;18.00;99.90;;;;;;5058410;28;20218;-74
2022/08/11 01:19:11;;;;;;;0.00;0.00;;;17.90;99.90;;;;;;5065651;28;20240;-72
2022/08/11 01:22:17;;;;;;;0.00;0.00;;;17.80;99.90;;;;;;5063539;28;20202;-72
2022/08/11 01:25:33;;;;;;;0.00;0.00;;;17.80;99.90;;;;;;5061703;28;20246;-73
2022/08/11 01:28:43;;;;;;;0.00;0.00;;;17.80;99.90;;;;;;5062309;28;20222;-72
2022/08/11 01:31:47;;;;;;;0.00;0.00;;;17.70;99.90;;;;;;5065215;28;20226;-72
2022/08/11 01:34:48;;;;;;;0.00;0.00;;;17.70;99.90;;;;;;5065700;28;20312;-72
2022/08/11 01:37:47;;;;;;;0.00;0.00;;;17.70;99.90;;;;;;5063685;28;20194;-73
2022/08/11 01:40:42;;;;;;;0.00;0.00;;;17.60;99.90;;;;;;5065623;28;20186;-72
2022/08/11 01:46:56;;;;;;;0.00;0.00;;;17.60;99.90;;;;;;5038205;28;20263;-72
2022/08/11 01:49:31;;;;;;;0.00;0.00;;;17.60;99.90;;;;;;5066179;28;20202;-73
2022/08/11 01:52:08;;;;;;;0.00;0.00;;;17.60;99.90;;;;;;5067190;28;20275;-72
2022/08/11 01:54:44;;;;;;;0.00;0.00;;;17.60;99.90;;;;;;5065511;28;20238;-72
2022/08/11 01:57:27;;;;;;;0.00;0.00;;;17.60;99.90;;;;;;5065625;28;20269;-72
2022/08/11 02:00:02;;;;;;;0.00;0.00;;;17.60;99.90;;;;;;5063737;28;20221;-72
2022/08/11 02:02:48;;;;;;;0.00;0.00;;;17.50;99.90;;;;;;5066571;28;20210;-73
2022/08/11 02:05:26;;;;;;;0.00;0.00;;;17.50;99.90;;;;;;5063347;28;20214;-72
2022/08/11 02:08:02;;;;;;;0.00;0.00;;;17.50;99.90;;;;;;5065061;28;20251;-72
2022/08/11 02:13:37;;;;;;;0.00;0.00;;;17.40;99.90;;;;;;5044272;28;20230;-73
2022/08/11 02:16:16;;;;;;;0.00;0.00;;;17.40;99.90;;;;;;5065495;28;20206;-73
2022/08/11 02:24:34;;;;;;;0.00;0.00;;;17.30;99.90;;;;;;5065379;28;20233;-73
2022/08/11 02:27:07;;;;;;;0.00;0.00;;;17.30;99.90;;;;;;5063991;28;20209;-73
2022/08/11 02:29:42;;;;;;;0.00;0.00;;;17.30;99.90;;;;;;5064911;28;20207;-73
2022/08/11 02:35:12;;;;;;;0.00;0.00;;;17.20;99.90;;;;;;5060856;28;20222;-73
2022/08/11 02:37:50;;;;;;;0.00;0.00;;;17.20;99.90;;;;;;5064313;28;20200;-73
2022/08/11 02:40:31;;;;;;;0.00;0.00;;;17.20;99.90;;;;;;5064455;28;20310;-73
2022/08/11 02:43:13;;;;;;;0.00;0.00;;;17.10;99.90;;;;;;5065858;28;20315;-73
2022/08/11 02:45:53;;;;;;;0.00;0.00;;;17.10;99.90;;;;;;5060695;28;20289;-73
2022/08/11 02:51:25;;;;;;;0.00;0.00;;;17.10;99.90;;;;;;5066247;28;20218;-73
2022/08/11 02:54:04;;;;;;;0.00;0.00;;;17.00;99.90;;;;;;5060485;28;20254;-73
2022/08/11 02:56:43;;;;;;;0.00;0.00;;;17.00;99.90;;;;;;5067230;28;20202;-73
2022/08/11 03:02:17;;;;;;;0.00;0.00;;;16.90;99.90;;;;;;5068342;28;20197;-73
2022/08/11 03:04:55;;;;;;;0.00;0.00;;;16.90;99.90;;;;;;5068640;28;20283;-72
2022/08/11 03:07:27;;;;;;;0.00;0.00;;;16.90;99.90;;;;;;5069778;28;20746;-73
2022/08/11 03:10:03;;;;;;;0.07;0.07;;;16.90;99.90;;;;;;5069295;28;20278;-73
2022/08/11 03:18:41;;;;;;;0.00;0.00;;;16.80;99.90;;;;;;4989644;28;20697;-72
2022/08/11 03:21:17;;;;;;;0.00;0.00;;;16.70;99.90;;;;;;5039199;28;20210;-71
2022/08/11 03:23:53;;;;;;;0.00;0.00;;;16.70;99.90;;;;;;5066377;28;20280;-72
2022/08/11 03:26:27;;;;;;;0.00;0.00;;;16.70;99.90;;;;;;5070208;28;20287;-72
2022/08/11 03:29:04;;;;;;;0.07;0.07;;;16.60;99.90;;;;;;5067552;28;20218;-71
2022/08/11 03:31:37;;;;;;;0.00;0.00;;;16.60;99.90;;;;;;5068155;28;20222;-71
2022/08/11 03:34:08;;;;;;;0.00;0.00;;;16.50;99.90;;;;;;5069924;28;20309;-72
2022/08/11 03:36:59;;;;;;;0.00;0.00;;;16.50;99.90;;;;;;5066573;28;20199;-72
2022/08/11 03:39:38;;;;;;;0.00;0.00;;;16.50;99.90;;;;;;5066488;28;20209;-72
2022/08/11 03:42:15;;;;;;;0.00;0.00;;;16.50;99.90;;;;;;5067957;28;20193;-71
2022/08/11 03:45:01;;;;;;;0.00;0.00;;;16.40;99.90;;;;;;5067227;28;20218;-71
2022/08/11 03:47:45;;;;;;;0.00;0.00;;;16.40;99.90;;;;;;5065821;28;20216;-71
2022/08/11 03:50:28;;;;;;;0.00;0.00;;;16.30;99.90;;;;;;5074786;28;20199;-72
2022/08/11 03:53:09;;;;;;;0.00;0.00;;;16.30;99.90;;;;;;5066929;28;20227;-71
2022/08/11 03:56:06;;;;;;;0.00;0.00;;;16.30;99.90;;;;;;5063798;28;20195;-72
2022/08/11 03:59:11;;;;;;;0.00;0.00;;;16.30;99.90;;;;;;5064855;28;20203;-72
2022/08/11 04:02:14;;;;;;;0.00;0.00;;;16.30;99.90;;;;;;5055739;28;20659;-72
2022/08/11 04:05:26;;;;;;;0.00;0.00;;;16.40;99.90;;;;;;5069368;28;20222;-72
2022/08/11 04:08:18;;;;;;;0.00;0.00;;;16.40;99.90;;;;;;5068284;28;20207;-72
2022/08/11 04:11:33;;;;;;;0.00;0.00;;;16.40;99.90;;;;;;5065814;28;20202;-72
2022/08/11 04:18:06;;;;;;;0.00;0.00;;;16.40;99.90;;;;;;4931720;28;20212;-73
2022/08/11 04:20:53;;;;;;;0.00;0.00;;;16.40;99.90;;;;;;5066961;28;20202;-76
2022/08/11 04:24:24;;;;;;;0.00;0.00;;;16.40;99.90;;;;;;5057825;28;20245;-73
2022/08/11 04:27:24;;;;;;;0.10;0.10;;;16.40;99.90;;;;;;5048412;28;20301;-73
2022/08/11 04:30:04;;;;;;;0.00;0.00;;;16.50;99.90;;;;;;5067227;28;20397;-73
2022/08/11 04:32:53;;;;;;;0.00;0.00;;;16.60;99.90;;;;;;5070692;28;20229;-73
2022/08/11 04:35:43;;;;;;;0.00;0.00;;;16.60;99.90;;;;;;5070865;28;20461;-73
2022/08/11 04:38:38;;;;;;;0.00;0.00;;;16.70;99.90;;;;;;5067442;28;20213;-73
2022/08/11 04:41:33;;;;;;;0.00;0.00;;;16.70;99.90;;;;;;5069081;28;20263;-73
2022/08/11 04:44:41;;;;;;;0.00;0.00;;;16.90;99.90;;;;;;5067391;28;20225;-73
2022/08/11 05:01:39;;;;;;;0.00;0.00;;;17.00;99.90;;;;;;5065106;28;20202;-73
2022/08/11 05:03:08;;;;;;;0.00;0.00;;;17.60;99.90;;;;;;5026189;28;20236;-73
2022/08/11 05:05:53;;;;;;;0.00;0.00;;;17.70;99.90;;;;;;5064467;28;20289;-73
2022/08/11 05:09:08;;;;;;;0.00;0.00;;;17.90;99.90;;;;;;5063781;28;20244;-73
2022/08/11 05:12:11;;;;;;;0.00;0.00;;;18.00;99.90;;;;;;5062936;28;20284;-73
2022/08/11 05:37:20;;;;;;;0.00;0.00;;;19.40;99.90;;;;;;5066887;28;20191;-71
2022/08/11 05:56:47;;;;;;;0.00;0.00;;;20.10;99.90;;;;;;5063254;28;20203;-70
2022/08/11 05:59:18;;;;;;;0.00;0.00;;;20.20;99.90;;;;;;5065664;28;20202;-71
2022/08/11 06:01:46;;;;;;;0.00;0.00;;;20.30;99.90;;;;;;5064451;28;20194;-71
2022/08/11 06:04:19;;;;;;;0.00;0.00;;;20.40;99.90;;;;;;5069100;28;20736;-71
2022/08/11 06:06:57;;;;;;;0.00;0.00;;;20.60;99.90;;;;;;5064664;28;20195;-71
2022/08/11 06:09:31;;;;;;;0.00;0.00;;;20.70;99.90;;;;;;5066029;28;20241;-71
2022/08/11 06:12:02;;;;;;;0.00;0.00;;;20.90;99.90;;;;;;5067090;28;20222;-71
2022/08/11 06:14:32;;;;;;;0.00;0.00;;;21.00;99.90;;;;;;5066807;28;20230;-71
2022/08/11 06:17:04;;;;;;;0.00;0.00;;;21.20;99.90;;;;;;5067517;28;20216;-72
2022/08/11 06:19:34;;;;;;;0.00;0.00;;;21.30;99.90;;;;;;5070688;28;20218;-71
2022/08/11 06:22:03;;;;;;;0.00;0.00;;;21.40;99.90;;;;;;5068555;28;20191;-71
2022/08/11 06:24:31;;;;;;;0.00;0.00;;;21.60;99.90;;;;;;5065925;28;20222;-72
2022/08/11 06:26:59;;;;;;;0.00;0.00;;;21.60;99.90;;;;;;5067185;28;20190;-72
2022/08/11 06:29:28;;;;;;;0.00;0.00;;;21.70;99.90;;;;;;5060284;28;20314;-71
2022/08/11 06:31:59;;;;;;;0.00;0.00;;;21.80;99.90;;;;;;5066303;28;20226;-71
2022/08/11 06:34:37;;;;;;;0.00;0.00;;;21.90;99.90;;;;;;5066207;28;20280;-71
2022/08/11 06:37:18;;;;;;;0.00;0.00;;;22.00;99.90;;;;;;5061128;28;20288;-71
2022/08/11 06:39:52;;;;;;;0.00;0.00;;;22.10;99.90;;;;;;5065213;28;20206;-72
2022/08/11 06:42:36;;;;;;;0.00;0.00;;;22.20;99.90;;;;;;5063561;28;20201;-72
2022/08/11 06:45:09;;;;;;;0.00;0.00;;;22.40;99.90;;;;;;5064901;28;20221;-72
2022/08/11 06:47:44;;;;;;;0.00;0.00;;;22.50;99.90;;;;;;5056230;28;20205;-71
2022/08/11 06:53:00;;;;;;;0.00;0.00;;;22.90;99.90;;;;;;5065365;28;20215;-72
2022/08/11 07:01:09;;;;;;;0.00;0.00;;;23.30;99.90;;;;;;5057785;28;20194;-71
2022/08/11 07:03:44;;;;;;;0.00;0.00;;;23.40;99.90;;;;;;5063588;28;20219;-71
2022/08/11 07:06:25;;;;;;;0.00;0.00;;;23.50;99.90;;;;;;5064195;28;20647;-71
2022/08/11 07:29:32;;;;;;;0.00;0.00;;;24.60;99.90;;;;;;5060399;28;20260;-71
2022/08/11 07:32:08;;;;;;;0.00;0.00;;;24.80;99.90;;;;;;5061504;28;20207;-72
2022/08/11 07:34:40;;;;;;;0.00;0.00;;;24.90;99.90;;;;;;5059596;28;20206;-72
2022/08/11 07:37:16;;;;;;;0.00;0.00;;;25.10;99.90;;;;;;5063198;28;20248;-71
2022/08/11 07:39:44;;;;;;;0.00;0.00;;;25.30;99.90;;;;;;5065976;28;20206;-71
2022/08/11 07:42:14;;;;;;;0.00;0.00;;;25.50;99.90;;;;;;5067718;28;20285;-71
2022/08/11 07:52:58;;;;;;;0.00;0.00;;;26.10;99.90;;;;;;5068444;28;20946;-70
2022/08/11 07:55:29;;;;;;;0.00;0.00;;;26.20;99.90;;;;;;5071288;28;20702;-71
2022/08/11 08:17:56;;;;;;;0.00;0.00;;;27.20;99.90;;;;;;5066131;28;20302;-72
2022/08/11 08:20:25;;;;;;;0.00;0.00;;;27.30;99.90;;;;;;5064431;28;20206;-71
2022/08/11 08:22:55;;;;;;;0.00;0.00;;;27.40;99.90;;;;;;5061383;28;20293;-71
2022/08/11 08:25:26;;;;;;;0.00;0.00;;;27.40;99.90;;;;;;5069020;28;20203;-72
2022/08/11 08:27:55;;;;;;;0.00;0.00;;;27.50;99.90;;;;;;5066086;28;20207;-71
2022/08/11 08:33:12;;;;;;;0.00;0.00;;;;;;;;;;5066971;28;20219;-72
2022/08/11 08:35:39;;;;;;;0.00;0.00;;;;;;;;;;5069566;28;20206;-71
2022/08/11 08:38:07;;;;;;;0.00;0.00;;;28.10;99.90;;;;;;5068737;28;20213;-72
2022/08/11 08:40:36;;;;;;;0.00;0.00;;;28.10;99.90;;;;;;5070242;28;20203;-71
2022/08/11 08:43:09;;;;;;;0.00;0.00;;;28.10;99.90;;;;;;5067692;28;20256;-72
2022/08/11 08:45:37;;;;;;;0.00;0.00;;;28.20;99.90;;;;;;5066365;28;20202;-71
2022/08/11 08:48:08;;;;;;;0.00;0.00;;;28.30;99.90;;;;;;5064352;28;20199;-70
2022/08/11 08:53:29;;;;;;;0.00;0.00;;;28.40;99.90;;;;;;5066341;28;20226;-72
2022/08/11 08:56:00;;;;;;;0.00;0.00;;;28.40;99.90;;;;;;5066628;28;20191;-72
2022/08/11 08:58:29;;;;;;;0.00;0.00;;;28.50;99.90;;;;;;5060877;28;20298;-71
2022/08/11 09:00:58;;;;;;;0.00;0.00;;;28.50;99.90;;;;;;5068030;28;20309;-72
2022/08/11 09:03:26;;;;;;;0.00;0.00;;;28.50;99.90;;;;;;5073044;28;20222;-71
2022/08/11 09:05:54;;;;;;;0.00;0.00;;;28.60;99.90;;;;;;5066923;28;20198;-72
2022/08/11 09:08:23;;;;;;;0.00;0.00;;;28.70;99.90;;;;;;5069469;28;20207;-72
2022/08/11 09:11:48;;;;;;;0.00;0.00;;;28.70;99.90;;;;;;5067587;28;20198;-71
2022/08/11 09:13:44;;;;;;;0.00;0.00;;;28.80;99.90;;;;;;5065711;28;20238;-71
2022/08/11 09:16:12;;;;;;;0.00;0.00;;;28.70;99.90;;;;;;5064575;28;20280;-71
2022/08/11 09:18:43;;;;;;;0.00;0.00;;;28.80;99.90;;;;;;5064208;28;20297;-72
2022/08/11 09:21:13;;;;;;;0.00;0.00;;;28.90;99.90;;;;;;5067592;28;20674;-71
2022/08/11 09:29:14;;;;;;;0.00;0.00;;;29.20;99.90;;;;;;5080264;28;20198;-71
2022/08/11 09:31:42;;;;;;;0.00;0.00;;;29.30;99.90;;;;;;5065853;28;20210;-71
2022/08/11 09:34:10;;;;;;;0.00;0.00;;;29.50;99.90;;;;;;5066333;28;20222;-71
2022/08/11 09:42:11;;;;;;;0.00;0.00;;;29.60;99.90;;;;;;5064906;28;20195;-71
2022/08/11 09:44:47;;;;;;;0.00;0.00;;;29.70;99.90;;;;;;5057756;28;20242;-71
2022/08/11 09:47:19;;;;;;;0.00;0.00;;;29.70;99.90;;;;;;5066037;28;20198;-72
2022/08/11 09:49:50;;;;;;;0.00;0.00;;;29.80;99.90;;;;;;5065451;28;20381;-72
2022/08/11 09:52:18;;;;;;;0.00;0.00;;;29.80;99.90;;;;;;5067490;28;20273;-72
2022/08/11 09:54:49;;;;;;;0.00;0.00;;;29.90;99.90;;;;;;5070137;28;20250;-72
2022/08/11 10:00:08;;;;;;;0.00;0.00;;;30.10;99.90;;;;;;5065510;28;20376;-73
2022/08/11 10:02:42;;;;;;;0.00;0.00;;;30.10;99.90;;;;;;5066707;28;20205;-72
2022/08/11 10:07:55;;;;;;;0.00;0.00;;;30.10;99.90;;;;;;5066155;28;20348;-72
2022/08/11 10:10:23;;;;;;;0.00;0.00;;;30.20;99.90;;;;;;5067638;28;20776;-72
2022/08/11 10:12:58;;;;;;;0.00;0.00;;;30.10;99.90;;;;;;5065576;28;20218;-72
2022/08/11 10:15:37;;;;;;;0.00;0.00;;;30.10;99.90;;;;;;5066591;28;20194;-72
2022/08/11 10:20:56;;;;;;;0.00;0.00;;;30.20;99.90;;;;;;5065519;28;20233;-71
2022/08/11 10:33:58;;;;;;;0.00;0.00;;;30.40;99.90;;;;;;4984726;28;20201;-71
2022/08/11 10:34:45;;;;;;;0.00;0.00;;;30.60;99.90;;;;;;5068518;28;20300;-70
2022/08/11 10:37:13;;;;;;;0.00;0.00;;;30.60;99.90;;;;;;5065490;28;20235;-71
2022/08/11 10:39:41;;;;;;;0.00;0.00;;;30.60;99.90;;;;;;5064005;28;20194;-70
2022/08/11 10:44:57;;;;;;;0.00;0.00;;;30.70;99.90;;;;;;5066154;28;20301;-70
2022/08/11 10:47:34;;;;;;;0.00;0.00;;;30.80;99.90;;;;;;5061754;28;20206;-71
2022/08/11 11:01:06;;;;;;;0.00;0.00;;;;;;;;;;5062959;28;20191;-71
2022/08/11 11:03:36;;;;;;;0.00;0.00;;;;;;;;;;5066602;28;20309;-71
2022/08/11 11:06:07;;;;;;;0.00;0.00;;;;;;;;;;5067540;28;20226;-71
2022/08/11 11:08:52;;;;;;;0.00;0.00;;;;;;;;;;5065012;28;20198;-69
2022/08/11 11:11:21;;;;;;;0.00;0.00;;;30.90;99.90;;;;;;5065499;28;20211;-69
2022/08/11 11:19:25;;;;;;;0.00;0.00;;;31.40;99.90;;;;;;5092430;28;20236;-69
2022/08/11 11:21:54;;;;;;;0.00;0.00;;;;;;;;;;5067630;28;20222;-70
2022/08/11 11:24:40;;;;;;;0.00;0.00;;;31.30;99.90;;;;;;5068644;28;20206;-68
2022/08/11 11:27:18;;;;;;;0.00;0.00;;;31.30;99.90;;;;;;5078436;28;20202;-70
2022/08/11 11:29:58;;;;;;;0.00;0.00;;;31.30;99.90;;;;;;5067074;28;20573;-69
2022/08/11 11:32:31;;;;;;;0.00;0.00;;;31.30;99.90;;;;;;5081095;28;20206;-70
2022/08/11 11:35:18;;;;;;;0.00;0.00;;;31.30;99.90;;;;;;5069013;28;20309;-69
2022/08/11 11:37:48;;;;;;;0.00;0.00;;;31.20;99.90;;;;;;5063147;28;20207;-71
2022/08/11 11:40:20;;;;;;;0.00;0.00;;;31.30;99.90;;;;;;5068789;28;20203;-70
2022/08/11 11:42:49;;;;;;;0.00;0.00;;;31.30;99.90;;;;;;5069381;28;20198;-70
2022/08/11 11:45:17;;;;;;;0.00;0.00;;;;;;;;;;5068493;28;20214;-71
2022/08/11 11:47:45;;;;;;;0.00;0.00;;;31.40;99.90;;;;;;5065743;28;20195;-70
2022/08/11 11:50:14;;;;;;;0.00;0.00;;;31.50;99.90;;;;;;5068924;28;20190;-71
2022/08/11 11:52:43;;;;;;;0.00;0.00;;;;;;;;;;5064887;28;20294;-70
2022/08/11 11:55:11;;;;;;;0.00;0.00;;;31.40;99.90;;;;;;5070220;28;20223;-69
2022/08/11 12:03:11;;;;;;;0.00;0.00;;;;;;;;;;5066784;28;20199;-72
2022/08/11 12:05:42;;;;;;;0.00;0.00;;;;;;;;;;5067563;28;20209;-71
2022/08/11 12:08:15;;;;;;;0.00;0.00;;;30.50;99.90;;;;;;5062133;28;20271;-72
2022/08/11 12:10:47;;;;;;;0.00;0.00;;;;;;;;;;5067786;28;20220;-72
2022/08/11 12:16:03;;;;;;;0.00;0.00;;;31.50;99.90;;;;;;5066832;28;20199;-72
2022/08/11 12:18:34;;;;;;;0.00;0.00;;;31.30;99.90;;;;;;5066502;28;20207;-71
2022/08/11 12:21:04;;;;;;;0.00;0.00;;;31.30;99.90;;;;;;5067734;28;20230;-70
2022/08/11 12:29:06;;;;;;;0.00;0.00;;;31.00;99.90;;;;;;5066078;28;20190;-71
2022/08/11 12:31:34;;;;;;;0.00;0.00;;;31.00;99.90;;;;;;5067015;28;20205;-71
2022/08/11 12:34:03;;;;;;;0.00;0.00;;;31.00;99.90;;;;;;5068155;28;20311;-72
2022/08/11 12:36:37;;;;;;;0.00;0.00;;;31.00;99.90;;;;;;5070726;28;20241;-71
2022/08/11 12:39:09;;;;;;;0.00;0.00;;;31.00;99.90;;;;;;5067557;28;20216;-71
2022/08/11 12:47:17;;;;;;;0.00;0.00;;;30.70;99.90;;;;;;5081649;28;20264;-70
2022/08/11 12:52:43;;;;;;;0.00;0.00;;;30.60;99.30;;;;;;5079607;28;20212;-72
2022/08/11 12:58:14;;;;;;;0.00;0.00;;;30.50;99.60;;;;;;5066969;28;20218;-71
2022/08/11 12:58:16;;;;;;;0.00;0.00;;;30.60;99.70;;;;;;5065147;28;20203;-72
2022/08/11 13:06:14;;;;;;;0.00;0.00;;;30.60;99.60;;;;;;5061573;28;20199;-72
2022/08/11 13:08:44;;;;;;;0.00;0.00;;;30.60;99.80;;;;;;5065704;28;20197;-71
2022/08/11 13:13:58;;;;;;;0.00;0.00;;;30.60;99.20;;;;;;5065913;28;20232;-70
2022/08/11 13:16:28;;;;;;;0.00;0.00;;;30.50;98.40;;;;;;5060679;28;20195;-71
2022/08/11 13:18:57;;;;;;;0.00;0.00;;;30.50;98.70;;;;;;5058200;28;20247;-73
2022/08/11 13:21:26;;;;;;;0.00;0.00;;;30.50;98.80;;;;;;5066817;28;20248;-71
2022/08/11 13:23:55;;;;;;;0.00;0.00;;;30.40;98.60;;;;;;5065778;28;20280;-72
2022/08/11 13:26:23;;;;;;;0.00;0.00;;;30.40;99.00;;;;;;5067530;28;20194;-72
2022/08/11 13:28:52;;;;;;;0.00;0.00;;;30.40;98.40;;;;;;5070068;28;20199;-72
2022/08/11 13:31:19;;;;;;;0.00;0.00;;;30.40;98.50;;;;;;5067686;28;20183;-71
2022/08/11 13:33:50;;;;;;;0.00;0.00;;;30.40;98.90;;;;;;5065039;28;20227;-71
2022/08/11 13:36:20;;;;;;;0.00;0.00;;;30.30;99.00;;;;;;5067521;28;20211;-71
2022/08/11 13:38:53;;;;;;;0.00;0.00;;;30.30;98.80;;;;;;5068167;28;20203;-71
2022/08/11 13:41:38;;;;;;;0.00;0.00;;;30.30;98.20;;;;;;5068076;28;20214;-71
2022/08/11 13:44:06;;;;;;;0.00;0.00;;;30.20;97.90;;;;;;5064820;28;20222;-72
2022/08/11 13:46:33;;;;;;;0.00;0.00;;;30.10;98.10;;;;;;5064357;28;20202;-71
2022/08/11 13:49:01;;;;;;;0.00;0.00;;;30.10;98.60;;;;;;5065766;28;20198;-71
2022/08/11 13:51:31;;;;;;;0.00;0.00;;;30.10;98.40;;;;;;5067726;28;20281;-71
2022/08/11 13:54:00;;;;;;;0.00;0.00;;;30.10;97.70;;;;;;5086446;28;20218;-72
2022/08/11 13:56:30;;;;;;;0.00;0.00;;;30.00;98.20;;;;;;5068732;28;20199;-72
2022/08/11 13:58:59;;;;;;;0.00;0.00;;;30.00;98.40;;;;;;5068930;28;20226;-71
2022/08/11 14:01:30;;;;;;;0.00;0.00;;;30.00;97.70;;;;;;5070908;28;20284;-73
2022/08/11 14:04:04;;;;;;;0.00;0.00;;;30.00;98.30;;;;;;5067809;28;20223;-73
2022/08/11 14:06:33;;;;;;;0.00;0.00;;;30.00;99.10;;;;;;5066082;28;20213;-72
2022/08/11 14:09:03;;;;;;;0.00;0.00;;;30.00;98.70;;;;;;5066016;28;20233;-72
2022/08/11 14:14:27;;;;;;;0.00;0.00;;;30.10;98.20;;;;;;5065902;28;20219;-71
2022/08/11 14:16:57;;;;;;;0.00;0.00;;;30.10;98.30;;;;;;5059239;28;20202;-72
2022/08/11 14:19:25;;;;;;;0.00;0.00;;;30.10;98.30;;;;;;5066581;28;20213;-72
2022/08/11 14:22:09;;;;;;;0.00;0.00;;;30.10;97.80;;;;;;5066656;28;20274;-71
2022/08/11 14:27:07;;;;;;;0.00;0.00;;;30.00;97.30;;;;;;5062540;28;20202;-72
2022/08/11 14:29:37;;;;;;;0.00;0.00;;;30.00;96.70;;;;;;5063657;28;20259;-72
2022/08/11 14:32:08;;;;;;;0.00;0.00;;;30.00;97.30;;;;;;5061874;28;20693;-72
2022/08/11 14:34:38;;;;;;;0.00;0.00;;;30.00;97.20;;;;;;5065439;28;20222;-73
2022/08/11 14:37:09;;;;;;;0.00;0.00;;;30.10;96.80;;;;;;5058945;28;20203;-72
2022/08/11 14:39:43;;;;;;;0.00;0.00;;;30.10;97.50;;;;;;5094831;22;20230;-66
2022/08/11 14:47:45;;;;;;;0.00;0.00;;;30.10;97.00;;;;;;5026166;28;20208;-68
2022/08/11 14:50:16;;;;;;;0.00;0.00;;;30.10;97.00;;;;;;5061283;28;20190;-67
2022/08/11 14:52:48;;;;;;;0.00;0.00;;;30.10;97.30;;;;;;5074890;28;20205;-68
2022/08/11 14:58:03;;;;;;;0.00;0.00;;;30.10;96.30;;;;;;5059405;28;20263;-68
2022/08/11 15:00:32;;;;;;;0.00;0.00;;;30.10;96.30;;;;;;5071878;28;20206;-67
2022/08/11 15:03:11;;;;;;;0.00;0.00;;;30.10;96.50;;;;;;5064306;28;20276;-67
2022/08/11 15:05:46;;;;;;;0.00;0.00;;;30.10;96.40;;;;;;5058191;28;20233;-68
2022/08/11 15:08:15;;;;;;;0.00;0.00;;;30.10;97.00;;;;;;5061736;28;20206;-71
2022/08/11 15:10:42;;;;;;;0.00;0.00;;;30.10;96.60;;;;;;5059093;28;20202;-70
2022/08/11 15:13:11;;;;;;;0.00;0.00;;;30.00;96.60;;;;;;5057370;28;20266;-71
2022/08/11 15:18:25;;;;;;;0.00;0.00;;;30.00;96.70;;;;;;5060614;28;20225;-71
2022/08/11 15:37:55;;;;;;;0.00;0.00;;;29.90;96.70;;;;;;5072888;28;20203;-78
2022/08/11 15:46:09;;;;;;;0.00;0.00;;;29.90;96.00;;;;;;5059985;28;20195;-78
2022/08/11 15:48:42;;;;;;;0.00;0.00;;;29.90;96.00;;;;;;5061150;28;20210;-77
2022/08/11 15:51:13;;;;;;;0.00;0.00;;;29.90;95.70;;;;;;5071165;28;20225;-76
2022/08/11 15:53:45;;;;;;;0.00;0.00;;;29.90;95.50;;;;;;5066206;28;20266;-76
2022/08/11 15:56:14;;;;;;;0.00;0.00;;;29.80;95.60;;;;;;5066115;28;20210;-78
2022/08/11 16:04:24;;;;;;;0.00;0.00;;;29.80;95.20;;;;;;5067634;28;20215;-78
2022/08/11 16:06:55;;;;;;;0.00;0.00;;;29.70;96.00;;;;;;5063185;28;20237;-78
2022/08/11 16:09:27;;;;;;;0.00;0.00;;;29.70;95.40;;;;;;5068086;28;20218;-77
2022/08/11 16:11:59;;;;;;;0.00;0.00;;;29.60;96.40;;;;;;5080634;28;20249;-77
2022/08/11 16:17:17;;;;;;;0.00;0.00;;;29.50;96.00;;;;;;5067835;28;20199;-77
2022/08/11 16:19:46;;;;;;;0.00;0.00;;;29.50;95.70;;;;;;5079410;28;20206;-77
2022/08/11 16:22:16;;;;;;;0.00;0.00;;;29.50;96.00;;;;;;5080130;28;20226;-77
2022/08/11 16:24:46;;;;;;;0.00;0.00;;;29.50;95.70;;;;;;5078954;28;20218;-78
2022/08/11 16:27:18;;;;;;;0.00;0.00;;;29.50;95.80;;;;;;5080089;28;20194;-76
2022/08/11 16:29:47;;;;;;;0.00;0.00;;;29.40;95.10;;;;;;5081207;28;20206;-77
2022/08/11 16:32:21;;;;;;;0.00;0.00;;;29.40;95.80;;;;;;5081031;28;20228;-77
2022/08/11 16:40:24;;;;;;;0.00;0.00;;;29.40;95.50;;;;;;5077138;28;20202;-76
2022/08/11 16:48:28;;;;;;;0.00;0.00;;;29.40;95.90;;;;;;5071062;28;20191;-76
2022/08/11 16:50:59;;;;;;;0.00;0.00;;;29.40;96.10;;;;;;5075857;28;20295;-75
2022/08/11 16:53:29;;;;;;;0.00;0.00;;;29.40;96.30;;;;;;5077487;28;20207;-76
2022/08/11 16:56:01;;;;;;;0.00;0.00;;;29.30;96.20;;;;;;5076901;28;20197;-77
2022/08/11 17:01:18;;;;;;;0.00;0.00;;;29.30;96.10;;;;;;5072850;28;20313;-76
2022/08/11 17:16:05;;;;;;;0.00;0.00;;;29.20;96.30;;;;;;5069211;28;20221;-77
2022/08/11 17:17:59;;;;;;;0.00;0.00;;;29.20;96.50;;;;;;5063176;28;20195;-76
2022/08/11 17:20:29;;;;;;;0.00;0.00;;;29.10;96.10;;;;;;5064547;28;20194;-78
2022/08/11 17:25:43;;;;;;;0.00;0.00;;;29.00;95.90;;;;;;5068238;28;20217;-77
2022/08/11 17:28:11;;;;;;;0.00;0.00;;;29.00;96.00;;;;;;5068373;28;20288;-78
2022/08/11 17:36:18;;;;;;;0.00;0.00;;;28.80;96.20;;;;;;5059926;28;20290;-78
2022/08/11 17:38:47;;;;;;;0.00;0.00;;;28.80;96.30;;;;;;5067964;28;20209;-78
2022/08/11 17:49:36;;;;;;;0.00;0.00;;;28.70;96.50;;;;;;5065101;28;20207;-77
2022/08/11 18:00:24;;;;;;;0.00;0.00;;;28.40;97.50;;;;;;5064353;28;20194;-73
2022/08/11 18:05:44;;;;;;;0.00;0.00;;;28.30;97.40;;;;;;5066058;28;20250;-78
